Warspite, Canada
Current Conditions -  °F | °C
As of 10:00 PM on Friday 24 Oct 2014 (Local Time) from CYED Reporting Station
Clear Clear  
Wind Chill: 26°   Ceiling: Unl
Heat Index: 32°   Visibility: 9mi
Dew Point: 19°   Wind: 6mph
Humidity: 60%   Direction: 250°WSW
Pressure: 29.94"   Gusts: NA
Location:  54.09°N, 112.62°W
Report Text: CYED 250400Z AUTO 25005KT 9SM CLR 00/M07 A2994 RMK SLP164
Loading
Personal Weather Stations






























Interactive Weather Map New forecast layout! Learn more

10-Day Weather Forecast

Advertisements
Track Severe Weather on mobile